Accueil
METAR-TAF:

METAR-TAF

Aéroports :

Wemindji, Québec, Canada

latitude: 53-00-39N, longitude: 078-49-49W, altitude: 15 m

Observation

Le bulletin a été fait il y a 5 heures et 26 minutes, à 20:00 UTC
Vent 8 kt de nord/nord-est, variant entre nord et est
Température 18°C
Humidité 22%
Pression 1010 hPa
Visibilité: 24.1 km
Quelques nuages à une hauteur de 4000 ft

METAR: CYNC 022000Z 03008KT 360V080 15SM FEW040 18/M04 A2982 RMK CU1 CU TR LAST STFD OBS/NEXT 031300UTC SLP101 DENSITY ALT 600FT

Heure: 21:26 (01:26 UTC)


TAF: absent

Observations et prévisions météorologiques de plus de 4000 aéroports (messages METAR et TAF).

Les stations disponibles sont représentées par des disques jaunes et rouges sur la carte.

Passer la souris dessus pour voir le nom de la station.

Cliquer dessus pour voir les observations et prévisions météorologiques.

Pour changer de carte: cliquez sur les boutons verts avec une croix noire pour zoomer, sur le bouton vert avec un tiret pour effectuer un zoom arrière, ou sur les flèches vertes pour les cartes adjacentes.


METAR-TAF: